sensor_id;sensor_type;location;lat;lon;timestamp;P1;durP1;ratioP1;P2;durP2;ratioP2
57627;SDS011;43451;49.060;10.616;2023-07-08T00:00:19;13.02;;;7.50;;
57627;SDS011;43451;49.060;10.616;2023-07-08T00:05:12;10.70;;;6.65;;
57627;SDS011;43451;49.060;10.616;2023-07-08T00:07:39;10.32;;;6.43;;
57627;SDS011;43451;49.060;10.616;2023-07-08T00:10:16;11.20;;;6.13;;
57627;SDS011;43451;49.060;10.616;2023-07-08T00:12:51;10.90;;;6.68;;
57627;SDS011;43451;49.060;10.616;2023-07-08T00:15:18;11.73;;;6.97;;
57627;SDS011;43451;49.060;10.616;2023-07-08T00:17:46;10.95;;;6.20;;
57627;SDS011;43451;49.060;10.616;2023-07-08T00:20:31;14.00;;;6.93;;
57627;SDS011;43451;49.060;10.616;2023-07-08T00:23:05;12.57;;;7.07;;
57627;SDS011;43451;49.060;10.616;2023-07-08T00:25:30;11.82;;;6.65;;
57627;SDS011;43451;49.060;10.616;2023-07-08T00:27:58;12.07;;;7.07;;
57627;SDS011;43451;49.060;10.616;2023-07-08T00:30:25;11.50;;;7.22;;
57627;SDS011;43451;49.060;10.616;2023-07-08T00:32:52;12.07;;;7.07;;
57627;SDS011;43451;49.060;10.616;2023-07-08T00:35:22;12.15;;;7.40;;
57627;SDS011;43451;49.060;10.616;2023-07-08T00:37:51;11.40;;;7.00;;
57627;SDS011;43451;49.060;10.616;2023-07-08T00:40:18;10.32;;;6.85;;
57627;SDS011;43451;49.060;10.616;2023-07-08T00:42:46;10.85;;;6.32;;
57627;SDS011;43451;49.060;10.616;2023-07-08T00:48:01;8.97;;;6.07;;
57627;SDS011;43451;49.060;10.616;2023-07-08T00:50:48;10.32;;;6.22;;
57627;SDS011;43451;49.060;10.616;2023-07-08T00:53:22;10.88;;;6.50;;
57627;SDS011;43451;49.060;10.616;2023-07-08T00:55:53;10.13;;;6.47;;
57627;SDS011;43451;49.060;10.616;2023-07-08T00:58:23;10.35;;;6.38;;
57627;SDS011;43451;49.060;10.616;2023-07-08T01:00:51;10.93;;;6.45;;
57627;SDS011;43451;49.060;10.616;2023-07-08T01:03:22;10.70;;;6.63;;
57627;SDS011;43451;49.060;10.616;2023-07-08T01:05:48;10.68;;;7.10;;
57627;SDS011;43451;49.060;10.616;2023-07-08T01:08:17;8.35;;;5.90;;
57627;SDS011;43451;49.060;10.616;2023-07-08T01:10:49;13.50;;;6.35;;
57627;SDS011;43451;49.060;10.616;2023-07-08T01:13:19;12.52;;;6.88;;
57627;SDS011;43451;49.060;10.616;2023-07-08T01:15:47;10.73;;;6.43;;
57627;SDS011;43451;49.060;10.616;2023-07-08T01:18:15;9.30;;;6.35;;
57627;SDS011;43451;49.060;10.616;2023-07-08T01:20:43;10.82;;;6.40;;
57627;SDS011;43451;49.060;10.616;2023-07-08T01:23:11;11.43;;;7.18;;
57627;SDS011;43451;49.060;10.616;2023-07-08T01:25:37;12.40;;;7.43;;
57627;SDS011;43451;49.060;10.616;2023-07-08T01:28:03;15.35;;;7.22;;
57627;SDS011;43451;49.060;10.616;2023-07-08T01:30:29;12.93;;;7.55;;
57627;SDS011;43451;49.060;10.616;2023-07-08T01:32:57;12.77;;;7.43;;
57627;SDS011;43451;49.060;10.616;2023-07-08T01:35:28;10.63;;;6.93;;
57627;SDS011;43451;49.060;10.616;2023-07-08T01:37:56;11.95;;;6.82;;
57627;SDS011;43451;49.060;10.616;2023-07-08T01:40:26;11.05;;;6.95;;
57627;SDS011;43451;49.060;10.616;2023-07-08T01:42:53;11.50;;;7.13;;
57627;SDS011;43451;49.060;10.616;2023-07-08T01:45:20;8.90;;;5.80;;
57627;SDS011;43451;49.060;10.616;2023-07-08T01:47:49;11.27;;;6.60;;
57627;SDS011;43451;49.060;10.616;2023-07-08T01:50:18;12.20;;;6.82;;
57627;SDS011;43451;49.060;10.616;2023-07-08T01:52:46;11.18;;;6.63;;
57627;SDS011;43451;49.060;10.616;2023-07-08T01:55:13;11.45;;;6.35;;
57627;SDS011;43451;49.060;10.616;2023-07-08T01:57:38;9.85;;;6.22;;
57627;SDS011;43451;49.060;10.616;2023-07-08T02:00:04;11.30;;;6.43;;
57627;SDS011;43451;49.060;10.616;2023-07-08T02:02:30;10.13;;;6.45;;
57627;SDS011;43451;49.060;10.616;2023-07-08T02:04:56;11.05;;;6.55;;
57627;SDS011;43451;49.060;10.616;2023-07-08T02:07:21;11.18;;;6.78;;
57627;SDS011;43451;49.060;10.616;2023-07-08T02:09:46;11.18;;;6.93;;
57627;SDS011;43451;49.060;10.616;2023-07-08T02:12:12;9.77;;;6.35;;
57627;SDS011;43451;49.060;10.616;2023-07-08T02:14:37;10.93;;;6.60;;
57627;SDS011;43451;49.060;10.616;2023-07-08T02:17:03;11.55;;;6.85;;
57627;SDS011;43451;49.060;10.616;2023-07-08T02:19:30;11.27;;;6.57;;
57627;SDS011;43451;49.060;10.616;2023-07-08T02:21:56;9.15;;;6.60;;
57627;SDS011;43451;49.060;10.616;2023-07-08T02:24:22;9.45;;;6.18;;
57627;SDS011;43451;49.060;10.616;2023-07-08T02:26:49;7.85;;;5.53;;
57627;SDS011;43451;49.060;10.616;2023-07-08T02:29:14;9.45;;;6.30;;
57627;SDS011;43451;49.060;10.616;2023-07-08T02:31:40;10.27;;;6.78;;
57627;SDS011;43451;49.060;10.616;2023-07-08T02:34:05;10.95;;;6.57;;
57627;SDS011;43451;49.060;10.616;2023-07-08T02:36:32;8.50;;;6.18;;
57627;SDS011;43451;49.060;10.616;2023-07-08T02:38:59;10.27;;;6.55;;
57627;SDS011;43451;49.060;10.616;2023-07-08T02:41:25;10.77;;;6.65;;
57627;SDS011;43451;49.060;10.616;2023-07-08T02:43:50;10.95;;;6.25;;
57627;SDS011;43451;49.060;10.616;2023-07-08T02:46:15;10.63;;;6.35;;
57627;SDS011;43451;49.060;10.616;2023-07-08T02:48:41;8.02;;;5.70;;
57627;SDS011;43451;49.060;10.616;2023-07-08T02:51:06;8.85;;;6.10;;
57627;SDS011;43451;49.060;10.616;2023-07-08T02:53:34;12.30;;;6.17;;
57627;SDS011;43451;49.060;10.616;2023-07-08T02:55:59;9.13;;;5.88;;
57627;SDS011;43451;49.060;10.616;2023-07-08T02:58:24;8.90;;;5.93;;
57627;SDS011;43451;49.060;10.616;2023-07-08T03:00:53;11.07;;;6.10;;
57627;SDS011;43451;49.060;10.616;2023-07-08T03:03:21;10.30;;;5.75;;
57627;SDS011;43451;49.060;10.616;2023-07-08T03:05:57;10.00;;;5.90;;
57627;SDS011;43451;49.060;10.616;2023-07-08T03:08:25;8.30;;;5.75;;
57627;SDS011;43451;49.060;10.616;2023-07-08T03:10:55;8.23;;;5.50;;
57627;SDS011;43451;49.060;10.616;2023-07-08T03:13:22;10.05;;;5.80;;
57627;SDS011;43451;49.060;10.616;2023-07-08T03:15:48;9.57;;;6.03;;
57627;SDS011;43451;49.060;10.616;2023-07-08T03:18:13;11.40;;;5.95;;
57627;SDS011;43451;49.060;10.616;2023-07-08T03:20:41;8.07;;;5.70;;
57627;SDS011;43451;49.060;10.616;2023-07-08T03:23:09;8.98;;;5.43;;
57627;SDS011;43451;49.060;10.616;2023-07-08T03:25:35;8.05;;;5.45;;
57627;SDS011;43451;49.060;10.616;2023-07-08T03:28:02;11.40;;;5.68;;
57627;SDS011;43451;49.060;10.616;2023-07-08T03:30:31;10.52;;;5.60;;
57627;SDS011;43451;49.060;10.616;2023-07-08T03:32:57;8.95;;;5.65;;
57627;SDS011;43451;49.060;10.616;2023-07-08T03:35:23;9.35;;;5.55;;
57627;SDS011;43451;49.060;10.616;2023-07-08T03:37:50;9.45;;;5.38;;
57627;SDS011;43451;49.060;10.616;2023-07-08T03:40:16;9.25;;;5.78;;
57627;SDS011;43451;49.060;10.616;2023-07-08T03:42:41;9.18;;;5.38;;
57627;SDS011;43451;49.060;10.616;2023-07-08T03:45:07;8.93;;;5.80;;
57627;SDS011;43451;49.060;10.616;2023-07-08T03:47:33;9.48;;;5.80;;
57627;SDS011;43451;49.060;10.616;2023-07-08T03:49:58;9.60;;;5.78;;
57627;SDS011;43451;49.060;10.616;2023-07-08T03:52:24;9.48;;;5.95;;
57627;SDS011;43451;49.060;10.616;2023-07-08T03:54:49;9.15;;;5.78;;
57627;SDS011;43451;49.060;10.616;2023-07-08T03:57:15;7.90;;;5.35;;
57627;SDS011;43451;49.060;10.616;2023-07-08T03:59:40;8.10;;;5.45;;
57627;SDS011;43451;49.060;10.616;2023-07-08T04:02:08;10.43;;;5.90;;
57627;SDS011;43451;49.060;10.616;2023-07-08T04:04:35;7.60;;;5.43;;
57627;SDS011;43451;49.060;10.616;2023-07-08T04:07:03;8.75;;;6.13;;
57627;SDS011;43451;49.060;10.616;2023-07-08T04:09:29;9.45;;;5.95;;
57627;SDS011;43451;49.060;10.616;2023-07-08T04:11:55;9.23;;;6.03;;
57627;SDS011;43451;49.060;10.616;2023-07-08T04:14:20;9.25;;;5.93;;
57627;SDS011;43451;49.060;10.616;2023-07-08T04:16:56;9.68;;;6.00;;
57627;SDS011;43451;49.060;10.616;2023-07-08T04:19:23;8.80;;;6.07;;
57627;SDS011;43451;49.060;10.616;2023-07-08T04:21:50;10.20;;;6.20;;
57627;SDS011;43451;49.060;10.616;2023-07-08T04:24:16;10.32;;;6.07;;
57627;SDS011;43451;49.060;10.616;2023-07-08T04:26:43;10.68;;;5.60;;
57627;SDS011;43451;49.060;10.616;2023-07-08T04:29:15;9.75;;;6.20;;
57627;SDS011;43451;49.060;10.616;2023-07-08T04:31:42;9.68;;;6.13;;
57627;SDS011;43451;49.060;10.616;2023-07-08T04:34:09;9.30;;;6.20;;
57627;SDS011;43451;49.060;10.616;2023-07-08T04:36:35;9.52;;;5.97;;
57627;SDS011;43451;49.060;10.616;2023-07-08T04:39:03;9.43;;;6.15;;
57627;SDS011;43451;49.060;10.616;2023-07-08T04:41:29;15.10;;;6.05;;
57627;SDS011;43451;49.060;10.616;2023-07-08T04:43:55;10.73;;;6.88;;
57627;SDS011;43451;49.060;10.616;2023-07-08T04:46:41;11.20;;;6.25;;
57627;SDS011;43451;49.060;10.616;2023-07-08T04:49:11;10.18;;;6.57;;
57627;SDS011;43451;49.060;10.616;2023-07-08T04:51:38;14.85;;;8.32;;
57627;SDS011;43451;49.060;10.616;2023-07-08T04:54:05;22.63;;;12.30;;
57627;SDS011;43451;49.060;10.616;2023-07-08T04:56:35;51.42;;;23.08;;
57627;SDS011;43451;49.060;10.616;2023-07-08T04:59:12;52.58;;;23.80;;
57627;SDS011;43451;49.060;10.616;2023-07-08T05:01:41;49.72;;;22.35;;
57627;SDS011;43451;49.060;10.616;2023-07-08T05:04:07;41.38;;;18.73;;
57627;SDS011;43451;49.060;10.616;2023-07-08T05:06:36;34.75;;;15.90;;
57627;SDS011;43451;49.060;10.616;2023-07-08T05:09:02;31.48;;;16.13;;
57627;SDS011;43451;49.060;10.616;2023-07-08T05:11:28;30.20;;;15.73;;
57627;SDS011;43451;49.060;10.616;2023-07-08T05:13:54;36.08;;;17.60;;
57627;SDS011;43451;49.060;10.616;2023-07-08T05:16:20;37.45;;;17.45;;
57627;SDS011;43451;49.060;10.616;2023-07-08T05:18:46;34.45;;;16.73;;
57627;SDS011;43451;49.060;10.616;2023-07-08T05:21:11;41.05;;;16.73;;
57627;SDS011;43451;49.060;10.616;2023-07-08T05:23:38;46.63;;;20.52;;
57627;SDS011;43451;49.060;10.616;2023-07-08T05:26:04;35.13;;;19.45;;
57627;SDS011;43451;49.060;10.616;2023-07-08T05:28:31;30.65;;;16.23;;
57627;SDS011;43451;49.060;10.616;2023-07-08T05:30:57;28.30;;;14.13;;
57627;SDS011;43451;49.060;10.616;2023-07-08T05:33:23;25.10;;;14.85;;
57627;SDS011;43451;49.060;10.616;2023-07-08T05:35:50;23.27;;;13.18;;
57627;SDS011;43451;49.060;10.616;2023-07-08T05:38:17;16.35;;;9.70;;
57627;SDS011;43451;49.060;10.616;2023-07-08T05:40:43;13.52;;;8.30;;
57627;SDS011;43451;49.060;10.616;2023-07-08T05:43:12;12.93;;;6.90;;
57627;SDS011;43451;49.060;10.616;2023-07-08T05:45:38;10.38;;;7.15;;
57627;SDS011;43451;49.060;10.616;2023-07-08T05:48:04;9.25;;;6.10;;
57627;SDS011;43451;49.060;10.616;2023-07-08T05:50:30;8.15;;;5.85;;
57627;SDS011;43451;49.060;10.616;2023-07-08T05:52:55;9.63;;;6.00;;
57627;SDS011;43451;49.060;10.616;2023-07-08T05:55:21;9.35;;;5.63;;
57627;SDS011;43451;49.060;10.616;2023-07-08T05:57:46;10.25;;;6.07;;
57627;SDS011;43451;49.060;10.616;2023-07-08T06:00:12;9.57;;;5.72;;
57627;SDS011;43451;49.060;10.616;2023-07-08T06:02:38;11.38;;;5.78;;
57627;SDS011;43451;49.060;10.616;2023-07-08T06:05:04;8.65;;;5.45;;
57627;SDS011;43451;49.060;10.616;2023-07-08T06:07:30;6.47;;;4.90;;
57627;SDS011;43451;49.060;10.616;2023-07-08T06:09:57;8.32;;;5.43;;
57627;SDS011;43451;49.060;10.616;2023-07-08T06:12:22;7.25;;;4.88;;
57627;SDS011;43451;49.060;10.616;2023-07-08T06:14:49;8.97;;;4.60;;
57627;SDS011;43451;49.060;10.616;2023-07-08T06:17:15;6.93;;;4.40;;
57627;SDS011;43451;49.060;10.616;2023-07-08T06:19:42;7.57;;;4.80;;
57627;SDS011;43451;49.060;10.616;2023-07-08T06:22:08;7.93;;;4.72;;
57627;SDS011;43451;49.060;10.616;2023-07-08T06:24:33;6.88;;;4.57;;
57627;SDS011;43451;49.060;10.616;2023-07-08T06:26:59;7.70;;;4.85;;
57627;SDS011;43451;49.060;10.616;2023-07-08T06:29:25;7.63;;;4.82;;
57627;SDS011;43451;49.060;10.616;2023-07-08T06:31:50;7.65;;;4.80;;
57627;SDS011;43451;49.060;10.616;2023-07-08T06:34:17;6.68;;;4.32;;
57627;SDS011;43451;49.060;10.616;2023-07-08T06:36:43;6.57;;;4.68;;
57627;SDS011;43451;49.060;10.616;2023-07-08T06:39:08;6.03;;;4.18;;
57627;SDS011;43451;49.060;10.616;2023-07-08T06:44:02;6.90;;;4.55;;
57627;SDS011;43451;49.060;10.616;2023-07-08T06:46:28;7.97;;;4.30;;
57627;SDS011;43451;49.060;10.616;2023-07-08T06:48:53;8.50;;;4.53;;
57627;SDS011;43451;49.060;10.616;2023-07-08T06:51:19;6.97;;;4.28;;
57627;SDS011;43451;49.060;10.616;2023-07-08T06:53:44;8.95;;;4.45;;
57627;SDS011;43451;49.060;10.616;2023-07-08T06:56:10;28.65;;;11.95;;
57627;SDS011;43451;49.060;10.616;2023-07-08T06:58:36;6.65;;;4.75;;
57627;SDS011;43451;49.060;10.616;2023-07-08T07:01:01;7.10;;;4.80;;
57627;SDS011;43451;49.060;10.616;2023-07-08T07:03:27;7.22;;;4.57;;
57627;SDS011;43451;49.060;10.616;2023-07-08T07:05:52;8.50;;;5.07;;
57627;SDS011;43451;49.060;10.616;2023-07-08T07:08:18;8.30;;;4.90;;
57627;SDS011;43451;49.060;10.616;2023-07-08T07:10:43;5.57;;;4.43;;
57627;SDS011;43451;49.060;10.616;2023-07-08T07:13:09;8.10;;;4.90;;
57627;SDS011;43451;49.060;10.616;2023-07-08T07:15:34;6.88;;;4.60;;
57627;SDS011;43451;49.060;10.616;2023-07-08T07:18:00;8.15;;;4.78;;
57627;SDS011;43451;49.060;10.616;2023-07-08T07:20:26;7.75;;;5.00;;
57627;SDS011;43451;49.060;10.616;2023-07-08T07:22:51;6.80;;;4.85;;
57627;SDS011;43451;49.060;10.616;2023-07-08T07:25:18;8.38;;;4.80;;
57627;SDS011;43451;49.060;10.616;2023-07-08T07:27:43;8.05;;;4.80;;
57627;SDS011;43451;49.060;10.616;2023-07-08T07:30:09;8.70;;;4.82;;
57627;SDS011;43451;49.060;10.616;2023-07-08T07:32:40;7.28;;;5.00;;
57627;SDS011;43451;49.060;10.616;2023-07-08T07:35:07;7.13;;;4.68;;
57627;SDS011;43451;49.060;10.616;2023-07-08T07:37:33;7.70;;;4.43;;
57627;SDS011;43451;49.060;10.616;2023-07-08T07:39:59;7.70;;;4.80;;
57627;SDS011;43451;49.060;10.616;2023-07-08T07:42:26;9.00;;;4.93;;
57627;SDS011;43451;49.060;10.616;2023-07-08T07:44:52;10.75;;;5.28;;
57627;SDS011;43451;49.060;10.616;2023-07-08T07:47:18;18.70;;;5.32;;
57627;SDS011;43451;49.060;10.616;2023-07-08T07:49:44;11.80;;;5.15;;
57627;SDS011;43451;49.060;10.616;2023-07-08T07:52:09;7.25;;;4.65;;
57627;SDS011;43451;49.060;10.616;2023-07-08T07:54:36;11.13;;;4.80;;
57627;SDS011;43451;49.060;10.616;2023-07-08T07:57:03;7.93;;;5.00;;
57627;SDS011;43451;49.060;10.616;2023-07-08T07:59:29;14.57;;;5.20;;
57627;SDS011;43451;49.060;10.616;2023-07-08T08:01:55;8.77;;;4.53;;
57627;SDS011;43451;49.060;10.616;2023-07-08T08:04:20;9.65;;;4.90;;
57627;SDS011;43451;49.060;10.616;2023-07-08T08:06:46;7.10;;;4.97;;
57627;SDS011;43451;49.060;10.616;2023-07-08T08:09:12;7.65;;;4.63;;
57627;SDS011;43451;49.060;10.616;2023-07-08T08:11:38;7.43;;;4.55;;
57627;SDS011;43451;49.060;10.616;2023-07-08T08:14:03;8.85;;;5.15;;
57627;SDS011;43451;49.060;10.616;2023-07-08T08:16:29;12.05;;;5.30;;
57627;SDS011;43451;49.060;10.616;2023-07-08T08:18:56;6.55;;;5.30;;
57627;SDS011;43451;49.060;10.616;2023-07-08T08:21:21;8.75;;;5.60;;
57627;SDS011;43451;49.060;10.616;2023-07-08T08:23:47;8.27;;;5.60;;
57627;SDS011;43451;49.060;10.616;2023-07-08T08:26:12;6.72;;;5.20;;
57627;SDS011;43451;49.060;10.616;2023-07-08T08:28:39;9.27;;;5.22;;
57627;SDS011;43451;49.060;10.616;2023-07-08T08:31:04;7.72;;;5.43;;
57627;SDS011;43451;49.060;10.616;2023-07-08T08:33:30;6.93;;;5.15;;
57627;SDS011;43451;49.060;10.616;2023-07-08T08:35:55;7.28;;;5.40;;
57627;SDS011;43451;49.060;10.616;2023-07-08T08:38:21;6.65;;;5.22;;
57627;SDS011;43451;49.060;10.616;2023-07-08T08:40:47;10.75;;;5.43;;
57627;SDS011;43451;49.060;10.616;2023-07-08T08:43:18;7.60;;;5.57;;
57627;SDS011;43451;49.060;10.616;2023-07-08T08:45:57;7.57;;;5.03;;
57627;SDS011;43451;49.060;10.616;2023-07-08T08:48:40;6.80;;;5.50;;
57627;SDS011;43451;49.060;10.616;2023-07-08T08:51:28;10.23;;;5.38;;
57627;SDS011;43451;49.060;10.616;2023-07-08T08:53:57;7.43;;;5.60;;
57627;SDS011;43451;49.060;10.616;2023-07-08T09:01:49;8.02;;;5.70;;
57627;SDS011;43451;49.060;10.616;2023-07-08T09:04:17;9.77;;;6.13;;
57627;SDS011;43451;49.060;10.616;2023-07-08T09:06:47;9.07;;;5.68;;
57627;SDS011;43451;49.060;10.616;2023-07-08T09:09:14;8.13;;;5.53;;
57627;SDS011;43451;49.060;10.616;2023-07-08T09:14:17;7.45;;;5.85;;
57627;SDS011;43451;49.060;10.616;2023-07-08T09:19:47;8.90;;;5.88;;
57627;SDS011;43451;49.060;10.616;2023-07-08T09:25:00;8.43;;;5.57;;
57627;SDS011;43451;49.060;10.616;2023-07-08T09:27:29;8.57;;;5.43;;
57627;SDS011;43451;49.060;10.616;2023-07-08T09:29:55;11.13;;;5.60;;
57627;SDS011;43451;49.060;10.616;2023-07-08T09:32:22;9.23;;;5.60;;
57627;SDS011;43451;49.060;10.616;2023-07-08T09:34:50;8.05;;;5.47;;
57627;SDS011;43451;49.060;10.616;2023-07-08T09:37:34;8.02;;;5.93;;
57627;SDS011;43451;49.060;10.616;2023-07-08T09:40:04;8.38;;;5.57;;
57627;SDS011;43451;49.060;10.616;2023-07-08T09:42:50;10.20;;;5.63;;
57627;SDS011;43451;49.060;10.616;2023-07-08T09:45:19;12.15;;;5.65;;
57627;SDS011;43451;49.060;10.616;2023-07-08T09:47:52;8.65;;;5.43;;
57627;SDS011;43451;49.060;10.616;2023-07-08T09:50:19;9.85;;;5.80;;
57627;SDS011;43451;49.060;10.616;2023-07-08T09:52:47;8.38;;;5.60;;
57627;SDS011;43451;49.060;10.616;2023-07-08T09:55:16;9.77;;;5.43;;
57627;SDS011;43451;49.060;10.616;2023-07-08T09:57:42;11.67;;;6.07;;
57627;SDS011;43451;49.060;10.616;2023-07-08T10:00:11;10.65;;;5.70;;
57627;SDS011;43451;49.060;10.616;2023-07-08T10:02:45;9.23;;;5.35;;
57627;SDS011;43451;49.060;10.616;2023-07-08T10:05:35;9.45;;;5.75;;
57627;SDS011;43451;49.060;10.616;2023-07-08T10:08:10;8.63;;;5.53;;
57627;SDS011;43451;49.060;10.616;2023-07-08T10:10:39;10.97;;;5.77;;
57627;SDS011;43451;49.060;10.616;2023-07-08T10:13:12;9.17;;;5.57;;
57627;SDS011;43451;49.060;10.616;2023-07-08T10:15:50;11.15;;;5.57;;
57627;SDS011;43451;49.060;10.616;2023-07-08T10:18:22;9.55;;;5.30;;
57627;SDS011;43451;49.060;10.616;2023-07-08T10:21:13;9.18;;;5.00;;
57627;SDS011;43451;49.060;10.616;2023-07-08T10:32:24;8.00;;;5.47;;
57627;SDS011;43451;49.060;10.616;2023-07-08T10:35:11;8.75;;;5.10;;
57627;SDS011;43451;49.060;10.616;2023-07-08T10:43:15;8.65;;;5.03;;
57627;SDS011;43451;49.060;10.616;2023-07-08T10:51:22;6.13;;;5.03;;
57627;SDS011;43451;49.060;10.616;2023-07-08T11:02:17;8.15;;;5.43;;
57627;SDS011;43451;49.060;10.616;2023-07-08T11:05:23;8.25;;;4.90;;
57627;SDS011;43451;49.060;10.616;2023-07-08T11:13:39;9.35;;;5.10;;
57627;SDS011;43451;49.060;10.616;2023-07-08T11:16:34;7.93;;;4.97;;
57627;SDS011;43451;49.060;10.616;2023-07-08T11:19:26;8.13;;;5.05;;
57627;SDS011;43451;49.060;10.616;2023-07-08T11:21:59;6.85;;;4.75;;
57627;SDS011;43451;49.060;10.616;2023-07-08T11:27:08;9.48;;;5.25;;
57627;SDS011;43451;49.060;10.616;2023-07-08T11:29:57;8.63;;;5.10;;
57627;SDS011;43451;49.060;10.616;2023-07-08T11:32:31;7.90;;;4.95;;
57627;SDS011;43451;49.060;10.616;2023-07-08T11:34:58;6.63;;;4.97;;
57627;SDS011;43451;49.060;10.616;2023-07-08T11:37:25;7.65;;;5.18;;
57627;SDS011;43451;49.060;10.616;2023-07-08T11:39:54;8.55;;;5.03;;
57627;SDS011;43451;49.060;10.616;2023-07-08T11:45:53;11.23;;;5.22;;
57627;SDS011;43451;49.060;10.616;2023-07-08T11:48:03;10.57;;;5.60;;
57627;SDS011;43451;49.060;10.616;2023-07-08T11:50:40;10.65;;;5.80;;
57627;SDS011;43451;49.060;10.616;2023-07-08T11:53:10;7.57;;;5.13;;
57627;SDS011;43451;49.060;10.616;2023-07-08T11:55:44;8.68;;;5.22;;
57627;SDS011;43451;49.060;10.616;2023-07-08T11:58:19;8.93;;;5.32;;
57627;SDS011;43451;49.060;10.616;2023-07-08T12:03:38;7.53;;;5.18;;
57627;SDS011;43451;49.060;10.616;2023-07-08T12:08:53;8.10;;;5.18;;
57627;SDS011;43451;49.060;10.616;2023-07-08T12:11:24;7.47;;;5.47;;
57627;SDS011;43451;49.060;10.616;2023-07-08T12:13:52;10.43;;;5.57;;
57627;SDS011;43451;49.060;10.616;2023-07-08T12:16:21;8.93;;;5.82;;
57627;SDS011;43451;49.060;10.616;2023-07-08T12:18:47;8.57;;;5.45;;
57627;SDS011;43451;49.060;10.616;2023-07-08T12:21:14;9.43;;;5.47;;
57627;SDS011;43451;49.060;10.616;2023-07-08T12:23:44;9.07;;;5.45;;
57627;SDS011;43451;49.060;10.616;2023-07-08T12:26:11;9.10;;;5.68;;
57627;SDS011;43451;49.060;10.616;2023-07-08T12:28:41;7.55;;;5.38;;
57627;SDS011;43451;49.060;10.616;2023-07-08T12:31:15;7.40;;;5.28;;
57627;SDS011;43451;49.060;10.616;2023-07-08T12:33:44;9.15;;;5.43;;
57627;SDS011;43451;49.060;10.616;2023-07-08T12:36:20;9.63;;;5.38;;
57627;SDS011;43451;49.060;10.616;2023-07-08T12:38:50;9.65;;;5.25;;
57627;SDS011;43451;49.060;10.616;2023-07-08T12:41:18;8.43;;;5.57;;
57627;SDS011;43451;49.060;10.616;2023-07-08T12:43:46;9.07;;;5.22;;
57627;SDS011;43451;49.060;10.616;2023-07-08T12:46:13;9.43;;;5.90;;
57627;SDS011;43451;49.060;10.616;2023-07-08T12:48:40;9.48;;;5.65;;
57627;SDS011;43451;49.060;10.616;2023-07-08T12:51:09;8.32;;;5.47;;
57627;SDS011;43451;49.060;10.616;2023-07-08T12:53:37;8.90;;;5.72;;
57627;SDS011;43451;49.060;10.616;2023-07-08T12:56:03;10.00;;;5.90;;
57627;SDS011;43451;49.060;10.616;2023-07-08T12:58:31;8.07;;;5.40;;
57627;SDS011;43451;49.060;10.616;2023-07-08T13:01:02;8.50;;;5.57;;
57627;SDS011;43451;49.060;10.616;2023-07-08T13:03:30;7.55;;;5.93;;
57627;SDS011;43451;49.060;10.616;2023-07-08T13:05:59;8.70;;;5.63;;
57627;SDS011;43451;49.060;10.616;2023-07-08T13:10:58;9.57;;;5.80;;
57627;SDS011;43451;49.060;10.616;2023-07-08T13:13:29;14.65;;;5.50;;
57627;SDS011;43451;49.060;10.616;2023-07-08T13:15:59;8.27;;;5.53;;
57627;SDS011;43451;49.060;10.616;2023-07-08T13:18:30;8.40;;;5.75;;
57627;SDS011;43451;49.060;10.616;2023-07-08T13:20:58;8.48;;;6.03;;
57627;SDS011;43451;49.060;10.616;2023-07-08T13:23:24;8.05;;;5.63;;
57627;SDS011;43451;49.060;10.616;2023-07-08T13:25:53;9.05;;;5.50;;
57627;SDS011;43451;49.060;10.616;2023-07-08T13:30:59;9.30;;;5.57;;
57627;SDS011;43451;49.060;10.616;2023-07-08T13:33:33;10.10;;;5.07;;
57627;SDS011;43451;49.060;10.616;2023-07-08T13:36:03;6.80;;;4.80;;
57627;SDS011;43451;49.060;10.616;2023-07-08T13:38:35;11.90;;;5.35;;
57627;SDS011;43451;49.060;10.616;2023-07-08T13:41:03;7.70;;;5.20;;
57627;SDS011;43451;49.060;10.616;2023-07-08T13:43:32;11.43;;;5.40;;
57627;SDS011;43451;49.060;10.616;2023-07-08T13:46:00;7.15;;;4.90;;
57627;SDS011;43451;49.060;10.616;2023-07-08T13:48:28;6.90;;;4.93;;
57627;SDS011;43451;49.060;10.616;2023-07-08T13:53:44;8.05;;;5.25;;
57627;SDS011;43451;49.060;10.616;2023-07-08T13:56:13;14.35;;;5.20;;
57627;SDS011;43451;49.060;10.616;2023-07-08T13:58:52;9.38;;;4.82;;
57627;SDS011;43451;49.060;10.616;2023-07-08T14:01:26;9.68;;;5.20;;
57627;SDS011;43451;49.060;10.616;2023-07-08T14:03:52;9.38;;;5.20;;
57627;SDS011;43451;49.060;10.616;2023-07-08T14:06:21;6.93;;;4.82;;
57627;SDS011;43451;49.060;10.616;2023-07-08T14:08:48;8.85;;;4.78;;
57627;SDS011;43451;49.060;10.616;2023-07-08T14:11:17;6.65;;;4.78;;
57627;SDS011;43451;49.060;10.616;2023-07-08T14:13:42;8.35;;;4.25;;
57627;SDS011;43451;49.060;10.616;2023-07-08T14:16:10;8.20;;;4.47;;
57627;SDS011;43451;49.060;10.616;2023-07-08T14:18:55;13.85;;;4.63;;
57627;SDS011;43451;49.060;10.616;2023-07-08T14:21:26;7.57;;;5.13;;
57627;SDS011;43451;49.060;10.616;2023-07-08T14:23:52;9.57;;;4.68;;
57627;SDS011;43451;49.060;10.616;2023-07-08T14:26:18;6.80;;;4.70;;
57627;SDS011;43451;49.060;10.616;2023-07-08T14:28:44;6.95;;;4.70;;
57627;SDS011;43451;49.060;10.616;2023-07-08T14:31:10;7.55;;;4.55;;
57627;SDS011;43451;49.060;10.616;2023-07-08T14:33:37;8.95;;;4.50;;
57627;SDS011;43451;49.060;10.616;2023-07-08T14:36:07;7.75;;;4.57;;
57627;SDS011;43451;49.060;10.616;2023-07-08T14:38:34;13.90;;;6.30;;
57627;SDS011;43451;49.060;10.616;2023-07-08T14:41:00;8.23;;;4.40;;
57627;SDS011;43451;49.060;10.616;2023-07-08T14:43:29;9.65;;;5.18;;
57627;SDS011;43451;49.060;10.616;2023-07-08T14:45:57;11.45;;;5.13;;
57627;SDS011;43451;49.060;10.616;2023-07-08T14:48:24;9.30;;;4.68;;
57627;SDS011;43451;49.060;10.616;2023-07-08T14:50:52;9.10;;;4.45;;
57627;SDS011;43451;49.060;10.616;2023-07-08T14:53:18;10.50;;;4.63;;
57627;SDS011;43451;49.060;10.616;2023-07-08T14:55:44;6.15;;;4.32;;
57627;SDS011;43451;49.060;10.616;2023-07-08T14:58:29;9.80;;;4.72;;
57627;SDS011;43451;49.060;10.616;2023-07-08T15:00:58;10.88;;;4.82;;
57627;SDS011;43451;49.060;10.616;2023-07-08T15:03:25;7.63;;;4.63;;
57627;SDS011;43451;49.060;10.616;2023-07-08T15:05:51;7.50;;;4.45;;
57627;SDS011;43451;49.060;10.616;2023-07-08T15:08:17;6.25;;;4.30;;
57627;SDS011;43451;49.060;10.616;2023-07-08T15:10:50;8.93;;;4.30;;
57627;SDS011;43451;49.060;10.616;2023-07-08T15:13:18;8.15;;;4.30;;
57627;SDS011;43451;49.060;10.616;2023-07-08T15:15:46;10.77;;;4.03;;
57627;SDS011;43451;49.060;10.616;2023-07-08T15:18:13;20.90;;;8.33;;
57627;SDS011;43451;49.060;10.616;2023-07-08T15:20:44;8.80;;;4.75;;
57627;SDS011;43451;49.060;10.616;2023-07-08T15:23:10;8.33;;;4.13;;
57627;SDS011;43451;49.060;10.616;2023-07-08T15:25:37;8.18;;;4.18;;
57627;SDS011;43451;49.060;10.616;2023-07-08T15:28:09;8.55;;;4.10;;
57627;SDS011;43451;49.060;10.616;2023-07-08T15:30:43;8.82;;;4.30;;
57627;SDS011;43451;49.060;10.616;2023-07-08T15:33:10;6.90;;;3.72;;
57627;SDS011;43451;49.060;10.616;2023-07-08T15:35:37;7.28;;;4.30;;
57627;SDS011;43451;49.060;10.616;2023-07-08T15:38:03;14.40;;;5.63;;
57627;SDS011;43451;49.060;10.616;2023-07-08T15:40:33;6.63;;;3.95;;
57627;SDS011;43451;49.060;10.616;2023-07-08T15:43:00;7.32;;;3.85;;
57627;SDS011;43451;49.060;10.616;2023-07-08T15:45:28;7.38;;;3.72;;
57627;SDS011;43451;49.060;10.616;2023-07-08T15:47:56;5.95;;;4.10;;
57627;SDS011;43451;49.060;10.616;2023-07-08T15:50:22;7.70;;;3.90;;